Flight Track Log - Related Links

Times and Time Zones

All times are in EDT time to prevent confusion due to time zone crossing. See the UPS1143 flight status page for this flight to view local times or setup timezone preferences in your user account.

Time Position Orientation Groundspeed Altitude Reporting Facility
EDT Latitude Longitude Course Direction KTS MPH feet Rate Location/Type
Thu 11:23:19 PM 42.9500 -78.7170 46° Northeast 149 171 1,700  Level FlightAware ADS-B
Thu 11:23:29 PM 42.9540 -78.7110 48° Northeast 146 168 2,200 3,000 Climbing FlightAware ADS-B
Thu 11:23:39 PM 42.9590 -78.7030 50° Northeast 147 169 2,700 2,667 Climbing FlightAware ADS-B
Thu 11:23:47 PM 42.9600 -78.6970 77° East 152 175 3,000 2,500 Climbing FlightAware ADS-B
Thu 11:23:51 PM 42.9610 -78.6920 75° East 161 185 3,200 2,143 Climbing FlightAware ADS-B
Thu 11:24:15 PM 42.9520 -78.6680 117° Southeast 187 215 4,000 2,000 Climbing FlightAware ADS-B
Thu 11:24:27 PM 42.9440 -78.6610 147° Southeast 190 219 4,400 2,286 Climbing FlightAware ADS-B
Thu 11:24:36 PM 42.9370 -78.6590 168° South 189 217 4,800 2,625 Climbing FlightAware ADS-B
Thu 11:24:43 PM 42.9300 -78.6580 174° South 191 220 5,100 2,727 Climbing FlightAware ADS-B
Thu 11:24:47 PM 42.9260 -78.6580 180° South 191 220 5,300 2,000 Climbing FlightAware ADS-B
Thu 11:24:55 PM 42.9200 -78.6600 194° South 198 228 5,500 1,125 Climbing FlightAware ADS-B
Thu 11:25:03 PM 42.9130 -78.6650 208° Southwest 209 241 5,600 900 Climbing FlightAware ADS-B
Thu 11:25:15 PM 42.9030 -78.6750 216° Southwest 226 260 5,800 1,500 Climbing FlightAware ADS-B
Thu 11:25:31 PM 42.8910 -78.6920 226° Southwest 249 287 6,300 2,000 Climbing FlightAware ADS-B
Thu 11:25:51 PM 42.8750 -78.7170 229° Southwest 272 313 7,000 3,143 Climbing FlightAware ADS-B
Thu 11:26:13 PM 42.8560 -78.7480 230° Southwest 276 318 8,500 3,857 Climbing FlightAware ADS-B
Thu 11:26:33 PM 42.8390 -78.7740 228° Southwest 276 318 9,700 2,786 Climbing FlightAware ADS-B
Thu 11:27:09 PM 42.8090 -78.8230 230° Southwest 302 348 11,100 1,971 Climbing FlightAware ADS-B
Thu 11:27:43 PM 42.7850 -78.8840 242° Southwest 342 394 12,000 1,800 Climbing FlightAware ADS-B
Thu 11:28:19 PM 42.7560 -78.9580 242° Southwest 375 432 13,200 2,500 Climbing FlightAware ADS-B
Thu 11:28:55 PM 42.7260 -79.0310 241° Southwest 383 441 15,000 3,000 Climbing FlightAware ADS-B
Thu 11:29:27 PM 42.6980 -79.0990 241° Southwest 386 444 16,600 2,906 Climbing FlightAware ADS-B
Thu 11:29:59 PM 42.6670 -79.1680 239° Southwest 393 452 18,100 2,500 Climbing FlightAware ADS-B
Thu 11:30:39 PM 42.6300 -79.2550 240° Southwest 406 467 19,600 2,108 Climbing FlightAware ADS-B
Thu 11:31:13 PM 42.6010 -79.3270 241° Southwest 415 478 20,700 2,143 Climbing FlightAware ADS-B
Thu 11:31:49 PM 42.5650 -79.4120 240° Southwest 420 483 22,100 2,250 Climbing FlightAware ADS-B
Thu 11:32:25 PM 42.5300 -79.4940 240° Southwest 425 489 23,400 2,149 Climbing FlightAware ADS-B
Thu 11:32:56 PM 42.5000 -79.5660 241° Southwest 428 493 24,500 2,118 Climbing FlightAware ADS-B
Thu 11:33:33 PM 42.4630 -79.6530 240° Southwest 432 497 25,800 1,808 Climbing FlightAware ADS-B
Thu 11:34:09 PM 42.4190 -79.7270 231° Southwest 439 505 26,700 1,417 Climbing FlightAware ADS-B
Thu 11:34:45 PM 42.3710 -79.8030 229° Southwest 445 512 27,500 1,636 Climbing FlightAware ADS-B
Thu 11:35:15 PM 42.3310 -79.8670 230° Southwest 443 510 28,500 1,760 Climbing FlightAware ADS-B
Thu 11:36:00 PM 42.2820 -79.9450 230° Southwest 439 505 29,700 1,674 Climbing FlightAware ADS-B
Thu 11:36:41 PM 42.2260 -80.0340 230° Southwest 438 504 30,900 1,816 Climbing FlightAware ADS-B
Thu 11:37:16 PM 42.1810 -80.1040 229° Southwest 433 498 32,000 930 Climbing FlightAware ADS-B
Thu 11:37:52 PM 42.1300 -80.1850 230° Southwest 436 502 32,000  Level FlightAware ADS-B
Thu 11:38:27 PM 42.0880 -80.2480 228° Southwest 434 499 32,000  Level FlightAware ADS-B
Thu 11:38:57 PM 42.0460 -80.3140 229° Southwest 436 502 32,000  Level FlightAware ADS-B
Thu 11:39:35 PM 41.9940 -80.3960 230° Southwest 436 502 32,000  Level FlightAware ADS-B
Thu 11:40:12 PM 41.9480 -80.4680 229° Southwest 436 502 32,000  Level FlightAware ADS-B
Thu 11:40:45 PM 41.8990 -80.5440 229° Southwest 437 503 32,000  Level FlightAware ADS-B
Thu 11:41:17 PM 41.8610 -80.6030 229° Southwest 438 504 32,000  Level FlightAware ADS-B
Thu 11:41:56 PM 41.8070 -80.6850 229° Southwest 440 506 32,000  Level FlightAware ADS-B
Thu 11:42:36 PM 41.7560 -80.7630 229° Southwest 440 506 32,000  Level FlightAware ADS-B
Thu 11:43:15 PM 41.6990 -80.8500 229° Southwest 441 507 32,000  Level FlightAware ADS-B
Thu 11:43:48 PM 41.6640 -80.9050 230° Southwest 441 507 32,000  Level FlightAware ADS-B
Thu 11:44:24 PM 41.6030 -80.9980 229° Southwest 442 509 32,000  Level FlightAware ADS-B
Thu 11:44:54 PM 41.5630 -81.0590 229° Southwest 442 509 32,000  Level FlightAware ADS-B
Thu 11:45:32 PM 41.5100 -81.1390 229° Southwest 444 511 32,000  Level FlightAware ADS-B
Thu 11:46:07 PM 41.4630 -81.2110 229° Southwest 445 512 32,000  Level FlightAware ADS-B
Thu 11:46:42 PM 41.4160 -81.2810 228° Southwest 446 513 32,000  Level FlightAware ADS-B
Thu 11:47:13 PM 41.3750 -81.3430 229° Southwest 445 512 32,000  Level FlightAware ADS-B
Thu 11:47:56 PM 41.3150 -81.4330 228° Southwest 443 510 32,000  Level FlightAware ADS-B
Thu 11:48:28 PM 41.2700 -81.5000 228° Southwest 442 509 32,000  Level FlightAware ADS-B
Thu 11:49:04 PM 41.2220 -81.5730 229° Southwest 440 506 32,000  Level FlightAware ADS-B
Thu 11:49:40 PM 41.1750 -81.6490 231° Southwest 433 498 32,000  Level FlightAware ADS-B
Thu 11:50:16 PM 41.1510 -81.7370 250° West 430 495 32,000  Level FlightAware ADS-B
Thu 11:50:48 PM 41.1300 -81.8170 251° West 430 495 32,000  Level FlightAware ADS-B
Thu 11:51:24 PM 41.1070 -81.9070 251° West 431 496 32,000  Level FlightAware ADS-B
Thu 11:51:58 PM 41.0770 -81.9880 244° Southwest 439 505 32,000  Level FlightAware ADS-B
Thu 11:52:36 PM 41.0240 -82.0640 227° Southwest 444 511 32,000  Level FlightAware ADS-B
Thu 11:53:16 PM 40.9660 -82.1450 227° Southwest 445 512 32,000  Level FlightAware ADS-B
Thu 11:53:52 PM 40.9150 -82.2130 225° Southwest 444 511 32,000  Level FlightAware ADS-B
Thu 11:54:24 PM 40.8700 -82.2760 227° Southwest 445 512 32,000  Level FlightAware ADS-B
Thu 11:55:00 PM 40.8190 -82.3440 225° Southwest 444 511 32,000  Level FlightAware ADS-B
Thu 11:55:36 PM 40.7650 -82.4180 226° Southwest 444 511 32,000  Level FlightAware ADS-B
Thu 11:56:14 PM 40.7120 -82.4900 226° Southwest 443 510 32,000  Level FlightAware ADS-B
Thu 11:56:46 PM 40.6660 -82.5520 226° Southwest 443 510 32,000  Level FlightAware ADS-B
Thu 11:57:22 PM 40.6140 -82.6210 225° Southwest 441 507 32,000  Level FlightAware ADS-B
Thu 11:57:54 PM 40.5690 -82.6830 226° Southwest 442 509 32,000  Level FlightAware ADS-B
Thu 11:58:30 PM 40.5170 -82.7520 225° Southwest 442 509 32,000  Level FlightAware ADS-B
Thu 11:59:08 PM 40.4630 -82.8250 226° Southwest 443 510 32,000  Level FlightAware ADS-B
Thu 11:59:44 PM 40.4110 -82.8940 225° Southwest 443 510 32,000  Level FlightAware ADS-B
Fri 12:00:16 AM 40.3680 -82.9520 226° Southwest 444 511 32,000  Level FlightAware ADS-B
Fri 12:00:51 AM 40.3140 -83.0250 226° Southwest 445 512 32,000  Level FlightAware ADS-B
Fri 12:01:28 AM 40.2620 -83.0920 225° Southwest 446 513 32,000  Level FlightAware ADS-B
Fri 12:02:02 AM 40.2120 -83.1600 226° Southwest 445 512 32,000  Level FlightAware ADS-B
Fri 12:02:38 AM 40.1590 -83.2280 224° Southwest 445 512 32,000  Level FlightAware ADS-B
Fri 12:03:18 AM 40.1030 -83.3030 226° Southwest 445 512 32,000  Level FlightAware ADS-B
Fri 12:03:55 AM 40.0480 -83.3760 225° Southwest 446 513 32,000  Level FlightAware ADS-B
Fri 12:04:29 AM 39.9990 -83.4410 225° Southwest 446 513 32,000  Level FlightAware ADS-B
Fri 12:04:59 AM 39.9560 -83.4960 224° Southwest 446 513 32,000 -676 Level FlightAware ADS-B
Fri 12:05:40 AM 39.8950 -83.5760 225° Southwest 446 513 31,200 -1,397 Descending FlightAware ADS-B
Fri 12:06:12 AM 39.8480 -83.6380 225° Southwest 447 514 30,300 -1,043 Descending FlightAware ADS-B
Fri 12:06:49 AM 39.7950 -83.7060 225° Southwest 449 517 30,000 -254 Descending FlightAware ADS-B
Fri 12:07:23 AM 39.7450 -83.7720 225° Southwest 452 520 30,000  Level FlightAware ADS-B
Fri 12:07:57 AM 39.6930 -83.8390 225° Southwest 452 520 30,000  Level FlightAware ADS-B
Fri 12:08:33 AM 39.6400 -83.9080 225° Southwest 451 519 30,000  Level FlightAware ADS-B
Fri 12:09:09 AM 39.5880 -83.9750 225° Southwest 451 519 30,000  Level FlightAware ADS-B
Fri 12:09:46 AM 39.5310 -84.0470 224° Southwest 452 520 30,000  Level FlightAware ADS-B
Fri 12:10:37 AM 39.4620 -84.1360 225° Southwest 451 519 30,000  Level FlightAware ADS-B
Fri 12:11:13 AM 39.4160 -84.1930 224° Southwest 451 519 30,000  Level FlightAware ADS-B
Fri 12:11:59 AM 39.3580 -84.2660 224° Southwest 451 519 30,000 -70 Level FlightAware ADS-B
Fri 12:12:39 AM 39.2790 -84.3700 226° Southwest 364 419 29,900 -1,040 Descending FlightAware ADS-B
Fri 12:13:14 AM 39.2230 -84.4420 225° Southwest 451 519 28,700 -2,531 Descending FlightAware ADS-B
Fri 12:13:43 AM 39.1820 -84.4930 224° Southwest 449 517 27,200 -3,417 Descending FlightAware ADS-B
Fri 12:14:26 AM 39.1170 -84.5740 224° Southwest 456 525 24,600 -3,452 Descending FlightAware ADS-B
Fri 12:14:56 AM 39.0720 -84.6320 225° Southwest 452 520 23,000 -3,000 Descending FlightAware ADS-B
Fri 12:15:32 AM 39.0190 -84.6980 224° Southwest 440 506 21,300 -3,324 Descending FlightAware ADS-B
Fri 12:16:10 AM 38.9560 -84.7600 217° Southwest 423 487 18,900 -3,529 Descending FlightAware ADS-B
Fri 12:16:40 AM 38.9140 -84.8010 217° Southwest 418 481 17,300 -1,895 Descending FlightAware ADS-B
Fri 12:17:26 AM 38.8560 -84.8580 217° Southwest 417 480 16,500 -2,846 Descending FlightAware ADS-B
Fri 12:17:58 AM 38.7980 -84.9150 217° Southwest 401 461 13,600 -3,618 Descending FlightAware ADS-B
Fri 12:18:34 AM 38.7420 -84.9690 217° Southwest 401 461 12,400 -1,457 Descending FlightAware ADS-B
Fri 12:19:08 AM 38.6920 -85.0180 217° Southwest 401 461 11,900 -333 Descending FlightAware ADS-B
Fri 12:20:04 AM 38.6230 -85.0840 217° Southwest 401 461 11,900  Level FlightAware ADS-B
Fri 12:20:41 AM 38.5760 -85.1290 217° Southwest 401 461 11,900 -923 Level FlightAware ADS-B
Fri 12:21:09 AM 38.5150 -85.1870 217° Southwest 457 526 10,900 -1,429 Descending FlightAware ADS-B
Fri 12:21:44 AM 38.4640 -85.2370 218° Southwest 353 406 10,400 -818 Descending FlightAware ADS-B
Fri 12:22:15 AM 38.4240 -85.2740 216° Southwest 329 379 10,000 -750 Descending FlightAware ADS-B
Fri 12:22:24 AM 38.4150 -85.2830 218° Southwest 322 371 9,900 -529 Descending FlightAware ADS-B
Fri 12:22:49 AM 38.3880 -85.3080 216° Southwest 307 353 9,700 -933 Descending FlightAware ADS-B
Fri 12:23:09 AM 38.3630 -85.3310 216° Southwest 297 342 9,200 -1,350 Descending FlightAware ADS-B
Fri 12:23:29 AM 38.3420 -85.3510 217° Southwest 295 339 8,800 -1,371 Descending FlightAware ADS-B
Fri 12:23:44 AM 38.3240 -85.3690 218° Southwest 294 338 8,400 -1,371 Descending FlightAware ADS-B
Fri 12:24:04 AM 38.3030 -85.3880 215° Southwest 289 333 8,000 -667 Descending FlightAware ADS-B
Fri 12:24:29 AM 38.2760 -85.4140 217° Southwest 267 307 7,900 -133 Descending FlightAware ADS-B
Fri 12:24:49 AM 38.2600 -85.4290 216° Southwest 260 299 7,900 -450 Level FlightAware ADS-B
Fri 12:25:09 AM 38.2400 -85.4490 218° Southwest 256 295 7,600 -960 Descending FlightAware ADS-B
Fri 12:25:14 AM 38.2350 -85.4590 238° Southwest 253 291 7,500 -800 Descending FlightAware ADS-B
Fri 12:25:24 AM 38.2330 -85.4700 257° West 247 284 7,400 -900 Descending FlightAware ADS-B
Fri 12:25:34 AM 38.2300 -85.4860 257° West 246 283 7,200 -750 Descending FlightAware ADS-B
Fri 12:26:04 AM 38.2210 -85.5270 254° West 242 278 6,900 -600 Descending FlightAware ADS-B
Fri 12:26:24 AM 38.2160 -85.5530 256° West 234 269 6,700 -800 Descending FlightAware ADS-B
Fri 12:26:49 AM 38.2090 -85.5850 254° West 226 260 6,300 -933 Descending FlightAware ADS-B
Fri 12:27:09 AM 38.1990 -85.6100 243° Southwest 223 257 6,000 -720 Descending FlightAware ADS-B
Fri 12:27:14 AM 38.1950 -85.6130 211° Southwest 222 255 6,000  Level FlightAware ADS-B
Fri 12:27:19 AM 38.1900 -85.6160 205° Southwest 220 253 6,000 -400 Level FlightAware ADS-B
Fri 12:27:29 AM 38.1810 -85.6180 190° South 219 252 5,900 -200 Descending FlightAware ADS-B
Fri 12:27:49 AM 38.1600 -85.6120 167° South 219 252 5,900  Level FlightAware ADS-B
Fri 12:28:04 AM 38.1460 -85.6070 164° South 218 251 5,900 -514 Level FlightAware ADS-B
Fri 12:28:24 AM 38.1280 -85.6010 165° South 217 250 5,600 -1,050 Descending FlightAware ADS-B
Fri 12:28:44 AM 38.1070 -85.5940 165° South 215 247 5,200 -1,200 Descending FlightAware ADS-B
Fri 12:29:09 AM 38.0840 -85.5860 165° South 214 246 4,700 -1,200 Descending FlightAware ADS-B
Fri 12:29:29 AM 38.0630 -85.5800 167° South 213 245 4,300 -1,050 Descending FlightAware ADS-B
Fri 12:29:49 AM 38.0450 -85.5740 165° South 210 242 4,000 -600 Descending FlightAware ADS-B
Fri 12:30:09 AM 38.0260 -85.5680 166° South 205 236 3,900 -150 Descending FlightAware ADS-B
Fri 12:30:29 AM 38.0100 -85.5630 166° South 204 235 3,900 -171 Level FlightAware ADS-B
Fri 12:30:44 AM 37.9940 -85.5580 166° South 207 238 3,800 -686 Descending FlightAware ADS-B
Fri 12:31:04 AM 37.9770 -85.5530 167° South 210 242 3,500 -1,050 Descending FlightAware ADS-B
Fri 12:31:24 AM 37.9560 -85.5470 167° South 209 241 3,100 -1,000 Descending FlightAware ADS-B
Fri 12:31:34 AM 37.9470 -85.5480 185° South 200 230 3,000 -400 Descending FlightAware ADS-B
Fri 12:31:39 AM 37.9420 -85.5510 205° Southwest 197 227 3,000 -600 Level FlightAware ADS-B
Fri 12:31:44 AM 37.9390 -85.5540 218° Southwest 195 224 2,900 -400 Descending FlightAware ADS-B
Fri 12:31:54 AM 37.9350 -85.5640 243° Southwest 194 223 2,900  Level FlightAware ADS-B
Fri 12:31:59 AM 37.9340 -85.5690 256° West 193 222 2,900  Level FlightAware ADS-B
Fri 12:32:24 AM 37.9410 -85.5980 287° West 198 228 2,900  Level FlightAware ADS-B
Fri 12:32:29 AM 37.9430 -85.6010 310° West 199 229 2,900  Level FlightAware ADS-B
Fri 12:32:44 AM 37.9540 -85.6130 319° Northwest 200 230 2,900  Level FlightAware ADS-B
Fri 12:33:04 AM 37.9680 -85.6280 320° Northwest 200 230 2,900  Level FlightAware ADS-B
Fri 12:33:24 AM 37.9820 -85.6440 318° Northwest 200 230 2,900  Level FlightAware ADS-B
Fri 12:33:46 AM 37.9960 -85.6600 318° Northwest 200 230 2,900  Level FlightAware ADS-B
Fri 12:33:59 AM 38.0070 -85.6690 327° Northwest 203 234 2,900  Level FlightAware ADS-B
Fri 12:34:16 AM 38.0200 -85.6730 346° North 206 237 2,900  Level FlightAware ADS-B
Fri 12:34:24 AM 38.0290 -85.6760 345° North 206 237 2,900 -333 Level FlightAware ADS-B
Fri 12:34:34 AM 38.0390 -85.6800 343° North 206 237 2,800 -1,000 Descending FlightAware ADS-B
Fri 12:34:54 AM 38.0580 -85.6880 342° North 205 236 2,400 -1,067 Descending FlightAware ADS-B
Fri 12:35:19 AM 38.0780 -85.6950 345° North 198 228 2,000 -1,029 Descending FlightAware ADS-B
Fri 12:35:29 AM 38.0890 -85.6980 348° North 188 216 1,800 -800 Descending FlightAware ADS-B
Fri 12:35:49 AM 38.1030 -85.7020 347° North 169 194 1,600 -686 Descending FlightAware ADS-B
Fri 12:36:04 AM 38.1140 -85.7060 344° North 150 173 1,400 -769 Descending FlightAware ADS-B
Fri 12:36:28 AM 38.1310 -85.7120 344° North 137 158 1,100 -857 Descending FlightAware ADS-B
Fri 12:36:46 AM 38.1430 -85.7160 345° North 137 158 800 -682 Descending FlightAware ADS-B
Fri 12:37:12 AM 38.1590 -85.7220 344° North 135 155 600 -667 Descending FlightAware ADS-B
Fri 12:37:22 AM 38.1650 -85.7230 353° North 135 155 400 -324 Descending FlightAware ADS-B
Fri 12:37:49 AM 38.1780 -85.7280 343° North 135 155 400  Level FlightAware ADS-B

Login

Don't have an account? Register now (free) for customized features, flight alerts, and more!